Wetterdaten: Woche 20.06.11 - 26.06.11 (KW25)
Datum Zeit Temperatur Luftfeuchte Luftdruck Niederschlag Windrichtung Sonnenschein Solar Wind
20.06.2011 00:00 11,8 C 72 % 1017,8 hPa 0,0 l/m W-SW 0,00 h 0 W/m 9,9 km/h (2 Bft)
20.06.2011 01:00 11,4 C 76 % 1017,8 hPa 0,0 l/m W-SW 0,00 h 0 W/m 8,6 km/h (2 Bft)
20.06.2011 02:00 11,2 C 77 % 1017,7 hPa 0,0 l/m W-SW 0,00 h 0 W/m 10,3 km/h (2 Bft)
20.06.2011 03:00 11,2 C 78 % 1017,5 hPa 0,0 l/m SW 0,00 h 0 W/m 7,9 km/h (2 Bft)
20.06.2011 04:00 11,3 C 78 % 1017,3 hPa 0,0 l/m SW 0,00 h 0 W/m 9,7 km/h (2 Bft)
20.06.2011 05:00 11,5 C 76 % 1017,3 hPa 0,0 l/m W-SW 0,00 h 8 W/m 9,3 km/h (2 Bft)
20.06.2011 06:00 11,5 C 78 % 1017,5 hPa 0,0 l/m W-SW 0,00 h 17 W/m 9,7 km/h (2 Bft)
20.06.2011 07:00 11,6 C 82 % 1017,5 hPa 0,0 l/m W-SW 0,00 h 46 W/m 7,6 km/h (2 Bft)
20.06.2011 08:00 12,1 C 84 % 1017,4 hPa 0,0 l/m W-SW 0,00 h 70 W/m 6,4 km/h (2 Bft)
20.06.2011 09:00 13,1 C 80 % 1017,3 hPa 0,0 l/m W-SW 0,00 h 147 W/m 7,1 km/h (2 Bft)
20.06.2011 10:00 15,1 C 71 % 1016,9 hPa 0,0 l/m SW 0,17 h 341 W/m 15,4 km/h (3 Bft)
20.06.2011 11:00 16,2 C 65 % 1016,5 hPa 0,0 l/m SW 0,00 h 300 W/m 18,5 km/h (3 Bft)
20.06.2011 12:00 17,5 C 62 % 1015,9 hPa 0,0 l/m W-SW 0,17 h 444 W/m 20,4 km/h (4 Bft)
20.06.2011 13:00 17,8 C 61 % 1015,4 hPa 0,0 l/m W-SW 0,08 h 357 W/m 23,7 km/h (4 Bft)
20.06.2011 14:00 18,3 C 63 % 1015,1 hPa 0,0 l/m W 0,00 h 285 W/m 19,0 km/h (3 Bft)
20.06.2011 15:00 17,8 C 71 % 1015,2 hPa 0,2 l/m W-SW 0,00 h 215 W/m 18,8 km/h (3 Bft)
20.06.2011 16:00 18,0 C 73 % 1014,8 hPa 0,0 l/m W-SW 0,42 h 429 W/m 15,3 km/h (3 Bft)
20.06.2011 17:00 19,2 C 65 % 1014,5 hPa 0,0 l/m W 0,17 h 204 W/m 27,8 km/h (4 Bft)
20.06.2011 18:00 19,4 C 65 % 1014,3 hPa 0,0 l/m W 0,00 h 109 W/m 21,3 km/h (4 Bft)
20.06.2011 19:00 19,2 C 65 % 1014,7 hPa 0,0 l/m W-NW 0,00 h 66 W/m 19,6 km/h (3 Bft)
20.06.2011 20:00 18,7 C 67 % 1015,0 hPa 0,0 l/m W 0,00 h 39 W/m 13,6 km/h (3 Bft)
20.06.2011 21:00 17,5 C 74 % 1015,3 hPa 0,0 l/m N 0,00 h 8 W/m 2,9 km/h (1 Bft)
20.06.2011 22:00 16,6 C 79 % 1015,7 hPa 0,0 l/m W-NW 0,00 h 0 W/m 3,9 km/h (1 Bft)
20.06.2011 23:00 15,9 C 82 % 1015,8 hPa 0,0 l/m N 0,00 h 0 W/m 1,5 km/h (1 Bft)
21.06.2011 00:00 15,3 C 85 % 1015,7 hPa 0,0 l/m N 0,00 h 0 W/m 0,4 km/h (0 Bft)
21.06.2011 01:00 15,1 C 87 % 1015,8 hPa 0,0 l/m N 0,00 h 0 W/m 0,9 km/h (0 Bft)
21.06.2011 02:00 14,8 C 89 % 1015,5 hPa 0,0 l/m N 0,00 h 0 W/m 0,4 km/h (0 Bft)
21.06.2011 03:00 14,7 C 91 % 1015,2 hPa 0,0 l/m N 0,00 h 0 W/m 0,0 km/h (0 Bft)
21.06.2011 04:00 14,7 C 91 % 1015,0 hPa 0,0 l/m N 0,00 h 0 W/m 1,2 km/h (1 Bft)
21.06.2011 05:00 14,9 C 92 % 1014,8 hPa 0,0 l/m N 0,00 h 8 W/m 1,2 km/h (1 Bft)
21.06.2011 06:00 15,1 C 89 % 1015,0 hPa 0,0 l/m W-SW 0,17 h 64 W/m 7,0 km/h (2 Bft)
21.06.2011 07:00 16,8 C 83 % 1015,1 hPa 0,0 l/m SW 0,92 h 227 W/m 10,3 km/h (2 Bft)
21.06.2011 08:00 18,3 C 78 % 1015,0 hPa 0,0 l/m SW 0,92 h 380 W/m 16,0 km/h (3 Bft)
21.06.2011 09:00 20,1 C 74 % 1015,1 hPa 0,0 l/m W-SW 0,75 h 477 W/m 17,0 km/h (3 Bft)
21.06.2011 10:00 22,2 C 65 % 1015,0 hPa 0,0 l/m W-SW 0,83 h 701 W/m 23,2 km/h (4 Bft)
21.06.2011 11:00 23,5 C 62 % 1015,2 hPa 0,0 l/m W-SW 0,92 h 792 W/m 23,2 km/h (4 Bft)
21.06.2011 12:00 24,0 C 61 % 1015,1 hPa 0,0 l/m W 0,50 h 594 W/m 22,4 km/h (4 Bft)
21.06.2011 13:00 24,6 C 59 % 1015,0 hPa 0,0 l/m W 0,75 h 789 W/m 22,8 km/h (4 Bft)
21.06.2011 14:00 24,9 C 55 % 1014,7 hPa 0,0 l/m W 0,50 h 560 W/m 21,7 km/h (4 Bft)
21.06.2011 15:00 24,5 C 58 % 1014,6 hPa 0,0 l/m SW 0,17 h 393 W/m 20,1 km/h (4 Bft)
21.06.2011 16:00 25,8 C 55 % 1014,4 hPa 0,0 l/m W 0,50 h 432 W/m 18,4 km/h (3 Bft)
21.06.2011 17:00 25,3 C 55 % 1014,1 hPa 0,0 l/m W-SW 0,25 h 276 W/m 11,4 km/h (2 Bft)
21.06.2011 18:00 25,4 C 53 % 1013,7 hPa 0,0 l/m W-SW 0,42 h 241 W/m 15,3 km/h (3 Bft)
21.06.2011 19:00 25,1 C 56 % 1013,8 hPa 0,0 l/m W-SW 0,75 h 181 W/m 9,4 km/h (2 Bft)
21.06.2011 20:00 22,8 C 66 % 1013,7 hPa 0,0 l/m SW 0,00 h 38 W/m 7,2 km/h (2 Bft)
21.06.2011 21:00 20,9 C 71 % 1014,3 hPa 0,0 l/m SW 0,00 h 8 W/m 16,4 km/h (3 Bft)
21.06.2011 22:00 19,1 C 85 % 1015,0 hPa 0,0 l/m SW 0,00 h 0 W/m 7,5 km/h (2 Bft)
21.06.2011 23:00 18,2 C 88 % 1014,8 hPa 0,0 l/m S-SW 0,00 h 0 W/m 6,2 km/h (2 Bft)
22.06.2011 00:00 17,4 C 91 % 1014,6 hPa 0,0 l/m S-SW 0,00 h 0 W/m 2,7 km/h (1 Bft)
22.06.2011 01:00 16,7 C 91 % 1014,3 hPa 0,0 l/m S-SW 0,00 h 0 W/m 1,6 km/h (1 Bft)
22.06.2011 02:00 16,1 C 93 % 1014,0 hPa 0,0 l/m N 0,00 h 0 W/m 0,0 km/h (0 Bft)
22.06.2011 03:00 15,7 C 93 % 1013,5 hPa 0,0 l/m S-SW 0,00 h 0 W/m 1,9 km/h (1 Bft)
22.06.2011 04:00 15,8 C 91 % 1013,2 hPa 0,0 l/m S-SW 0,00 h 0 W/m 4,8 km/h (1 Bft)
22.06.2011 05:00 14,7 C 95 % 1013,0 hPa 0,0 l/m N 0,08 h 11 W/m 0,5 km/h (0 Bft)
22.06.2011 06:00 15,2 C 95 % 1013,2 hPa 0,0 l/m N 0,67 h 89 W/m 0,1 km/h (0 Bft)
22.06.2011 07:00 17,4 C 89 % 1013,3 hPa 0,0 l/m N 0,92 h 239 W/m 0,0 km/h (0 Bft)
22.06.2011 08:00 20,3 C 77 % 1013,0 hPa 0,0 l/m S 0,50 h 274 W/m 3,1 km/h (1 Bft)
22.06.2011 09:00 22,0 C 70 % 1012,7 hPa 0,0 l/m S 0,67 h 478 W/m 9,9 km/h (2 Bft)
22.06.2011 10:00 22,5 C 67 % 1012,3 hPa 0,0 l/m S-SW 0,33 h 372 W/m 11,7 km/h (2 Bft)
22.06.2011 11:00 23,2 C 62 % 1011,6 hPa 0,0 l/m SW 0,08 h 312 W/m 8,8 km/h (2 Bft)
22.06.2011 12:00 23,0 C 65 % 1011,1 hPa 0,0 l/m W 0,00 h 204 W/m 6,3 km/h (2 Bft)
22.06.2011 13:00 23,5 C 64 % 1010,5 hPa 0,0 l/m W 0,00 h 264 W/m 5,7 km/h (1 Bft)
22.06.2011 14:00 22,7 C 68 % 1010,9 hPa 0,0 l/m W 0,00 h 162 W/m 10,2 km/h (2 Bft)
22.06.2011 15:00 23,6 C 64 % 1010,4 hPa 0,0 l/m SW 0,67 h 647 W/m 15,0 km/h (3 Bft)
22.06.2011 16:00 25,9 C 54 % 1009,4 hPa 0,0 l/m S-SW 1,00 h 719 W/m 17,3 km/h (3 Bft)
22.06.2011 17:00 23,3 C 57 % 1010,9 hPa 1,8 l/m W 0,17 h 92 W/m 33,8 km/h (5 Bft)
22.06.2011 18:00 16,1 C 89 % 1012,3 hPa 2,6 l/m W-SW 0,00 h 28 W/m 16,2 km/h (3 Bft)
22.06.2011 19:00 15,5 C 94 % 1014,3 hPa 2,4 l/m W-SW 0,00 h 6 W/m 16,5 km/h (3 Bft)
22.06.2011 20:00 15,3 C 97 % 1015,0 hPa 1,4 l/m SW 0,00 h 5 W/m 16,8 km/h (3 Bft)
22.06.2011 21:00 15,3 C 97 % 1015,5 hPa 0,2 l/m SW 0,00 h 5 W/m 14,1 km/h (3 Bft)
22.06.2011 22:00 15,0 C 96 % 1016,1 hPa 0,0 l/m W-SW 0,00 h 0 W/m 17,0 km/h (3 Bft)
22.06.2011 23:00 14,8 C 96 % 1016,3 hPa 0,0 l/m W-SW 0,00 h 0 W/m 6,2 km/h (2 Bft)
23.06.2011 00:00 14,5 C 96 % 1016,4 hPa 0,0 l/m W-SW 0,00 h 0 W/m 8,8 km/h (2 Bft)
23.06.2011 01:00 14,3 C 95 % 1016,2 hPa 0,0 l/m N 0,00 h 0 W/m 2,1 km/h (1 Bft)
23.06.2011 02:00 14,3 C 97 % 1015,9 hPa 0,0 l/m N 0,00 h 0 W/m 1,7 km/h (1 Bft)
23.06.2011 03:00 13,8 C 97 % 1015,6 hPa 0,0 l/m N 0,00 h 0 W/m 0,9 km/h (0 Bft)
23.06.2011 04:00 13,0 C 98 % 1015,4 hPa 0,0 l/m N 0,00 h 0 W/m 0,5 km/h (0 Bft)
23.06.2011 05:00 13,0 C 99 % 1015,4 hPa 0,0 l/m N 0,00 h 10 W/m 0,3 km/h (0 Bft)
23.06.2011 06:00 13,4 C 99 % 1015,7 hPa 0,0 l/m N 0,00 h 19 W/m 0,0 km/h (0 Bft)
23.06.2011 07:00 14,1 C 99 % 1016,1 hPa 0,0 l/m N 0,00 h 50 W/m 0,0 km/h (0 Bft)
23.06.2011 08:00 14,6 C 96 % 1016,4 hPa 0,0 l/m W-SW 0,00 h 114 W/m 2,0 km/h (1 Bft)
23.06.2011 09:00 15,2 C 90 % 1016,5 hPa 0,0 l/m W-SW 0,00 h 129 W/m 6,3 km/h (2 Bft)
23.06.2011 10:00 16,2 C 81 % 1016,1 hPa 0,0 l/m W 0,17 h 296 W/m 9,7 km/h (2 Bft)
23.06.2011 11:00 16,7 C 74 % 1016,1 hPa 0,0 l/m W 0,00 h 231 W/m 7,5 km/h (2 Bft)
23.06.2011 12:00 17,0 C 80 % 1016,1 hPa 0,0 l/m SW 0,00 h 170 W/m 10,1 km/h (2 Bft)
23.06.2011 13:00 16,8 C 81 % 1015,9 hPa 0,0 l/m W-SW 0,00 h 137 W/m 9,9 km/h (2 Bft)
23.06.2011 14:00 16,4 C 85 % 1015,6 hPa 0,0 l/m SW 0,00 h 127 W/m 15,4 km/h (3 Bft)
23.06.2011 15:00 16,1 C 84 % 1016,1 hPa 0,0 l/m SW 0,00 h 115 W/m 17,3 km/h (3 Bft)
23.06.2011 16:00 16,9 C 83 % 1016,0 hPa 0,0 l/m S-SW 0,67 h 563 W/m 24,8 km/h (4 Bft)
23.06.2011 17:00 16,8 C 80 % 1016,1 hPa 0,0 l/m S-SW 0,83 h 503 W/m 29,5 km/h (5 Bft)
23.06.2011 18:00 16,3 C 80 % 1016,3 hPa 0,0 l/m SW 1,00 h 367 W/m 25,6 km/h (4 Bft)
23.06.2011 19:00 15,7 C 83 % 1016,4 hPa 0,0 l/m SW 0,75 h 188 W/m 22,1 km/h (4 Bft)
23.06.2011 20:00 14,8 C 85 % 1016,7 hPa 0,0 l/m SW 0,17 h 45 W/m 17,7 km/h (3 Bft)
23.06.2011 21:00 14,4 C 86 % 1017,4 hPa 0,0 l/m W-SW 0,00 h 6 W/m 17,0 km/h (3 Bft)
23.06.2011 22:00 13,2 C 80 % 1018,5 hPa 0,0 l/m NW 0,00 h 0 W/m 14,4 km/h (3 Bft)
23.06.2011 23:00 13,1 C 78 % 1018,8 hPa 0,0 l/m NW 0,00 h 0 W/m 15,6 km/h (3 Bft)
24.06.2011 00:00 12,8 C 79 % 1019,1 hPa 0,0 l/m W-NW 0,00 h 0 W/m 8,6 km/h (2 Bft)
24.06.2011 01:00 12,6 C 79 % 1019,3 hPa 0,0 l/m W-NW 0,00 h 0 W/m 11,2 km/h (2 Bft)
24.06.2011 02:00 12,1 C 81 % 1019,5 hPa 0,0 l/m W 0,00 h 0 W/m 8,4 km/h (2 Bft)
24.06.2011 03:00 11,5 C 83 % 1019,9 hPa 0,0 l/m W 0,00 h 0 W/m 8,6 km/h (2 Bft)
24.06.2011 04:00 11,2 C 84 % 1020,2 hPa 0,0 l/m W 0,00 h 0 W/m 6,4 km/h (2 Bft)
24.06.2011 05:00 10,9 C 87 % 1020,4 hPa 0,0 l/m W 0,00 h 9 W/m 4,8 km/h (1 Bft)
24.06.2011 06:00 10,3 C 91 % 1020,5 hPa 0,0 l/m N 0,25 h 68 W/m 1,9 km/h (1 Bft)
24.06.2011 07:00 12,2 C 84 % 1020,6 hPa 0,0 l/m SW 0,92 h 231 W/m 6,6 km/h (2 Bft)
24.06.2011 08:00 14,1 C 73 % 1020,6 hPa 0,0 l/m W 0,58 h 273 W/m 7,6 km/h (2 Bft)
24.06.2011 09:00 14,2 C 73 % 1020,7 hPa 0,0 l/m NW 0,08 h 157 W/m 10,0 km/h (2 Bft)
24.06.2011 10:00 11,8 C 87 % 1020,8 hPa 2,4 l/m W-NW 0,00 h 100 W/m 11,1 km/h (2 Bft)
24.06.2011 11:00 13,5 C 85 % 1020,6 hPa 0,0 l/m W-SW 0,25 h 313 W/m 9,7 km/h (2 Bft)
24.06.2011 12:00 13,5 C 85 % 1020,6 hPa 0,0 l/m SW 0,00 h 231 W/m 14,6 km/h (3 Bft)
24.06.2011 13:00 15,0 C 81 % 1020,3 hPa 0,0 l/m SW 0,17 h 464 W/m 16,9 km/h (3 Bft)
24.06.2011 14:00 15,9 C 73 % 1020,1 hPa 0,0 l/m SW 0,00 h 281 W/m 11,8 km/h (2 Bft)
24.06.2011 15:00 16,3 C 54 % 1020,1 hPa 0,0 l/m W-NW 0,00 h 201 W/m 16,1 km/h (3 Bft)
24.06.2011 16:00 17,0 C 54 % 1020,3 hPa 0,0 l/m NW 0,25 h 463 W/m 16,9 km/h (3 Bft)
24.06.2011 17:00 17,7 C 50 % 1020,5 hPa 0,0 l/m W-NW 0,75 h 562 W/m 18,0 km/h (3 Bft)
24.06.2011 18:00 17,3 C 52 % 1020,7 hPa 0,0 l/m NW 0,50 h 248 W/m 17,8 km/h (3 Bft)
24.06.2011 19:00 16,4 C 53 % 1021,3 hPa 0,0 l/m W-NW 0,17 h 113 W/m 11,4 km/h (2 Bft)
24.06.2011 20:00 15,8 C 57 % 1022,0 hPa 0,0 l/m N 0,83 h 79 W/m 11,5 km/h (2 Bft)
24.06.2011 21:00 13,7 C 66 % 1022,7 hPa 0,0 l/m N-NW 0,25 h 11 W/m 5,3 km/h (1 Bft)
24.06.2011 22:00 11,4 C 78 % 1023,4 hPa 0,0 l/m N 0,00 h 0 W/m 2,4 km/h (1 Bft)
24.06.2011 23:00 10,2 C 83 % 1023,5 hPa 0,0 l/m N 0,00 h 0 W/m 1,9 km/h (1 Bft)
25.06.2011 00:00 11,1 C 76 % 1023,8 hPa 0,0 l/m NW 0,00 h 0 W/m 3,6 km/h (1 Bft)
25.06.2011 01:00 10,6 C 78 % 1023,9 hPa 0,0 l/m N 0,00 h 0 W/m 1,3 km/h (1 Bft)
25.06.2011 02:00 9,9 C 83 % 1024,0 hPa 0,0 l/m N 0,00 h 0 W/m 1,2 km/h (1 Bft)
25.06.2011 03:00 9,4 C 88 % 1024,2 hPa 0,0 l/m N 0,00 h 0 W/m 0,9 km/h (0 Bft)
25.06.2011 04:00 9,4 C 90 % 1024,2 hPa 0,0 l/m N 0,00 h 0 W/m 0,3 km/h (0 Bft)
25.06.2011 05:00 9,5 C 91 % 1024,4 hPa 0,0 l/m N 0,00 h 7 W/m 0,0 km/h (0 Bft)
25.06.2011 06:00 9,8 C 91 % 1024,4 hPa 0,0 l/m N 0,00 h 33 W/m 0,5 km/h (0 Bft)
25.06.2011 07:00 10,8 C 89 % 1024,8 hPa 0,0 l/m N 0,00 h 91 W/m 1,5 km/h (1 Bft)
25.06.2011 08:00 12,5 C 82 % 1025,1 hPa 0,0 l/m S-SW 0,00 h 151 W/m 3,3 km/h (1 Bft)
25.06.2011 09:00 14,2 C 73 % 1025,2 hPa 0,0 l/m SW 0,00 h 184 W/m 4,8 km/h (1 Bft)
25.06.2011 10:00 15,7 C 66 % 1025,0 hPa 0,0 l/m SW 0,58 h 556 W/m 11,7 km/h (2 Bft)
25.06.2011 11:00 16,7 C 56 % 1025,1 hPa 0,0 l/m W 0,25 h 426 W/m 13,8 km/h (3 Bft)
25.06.2011 12:00 17,7 C 53 % 1025,0 hPa 0,0 l/m S-SW 0,33 h 460 W/m 15,8 km/h (3 Bft)
25.06.2011 13:00 18,0 C 51 % 1024,7 hPa 0,0 l/m W 0,08 h 356 W/m 13,7 km/h (3 Bft)
25.06.2011 14:00 18,3 C 54 % 1024,3 hPa 0,0 l/m W 0,25 h 382 W/m 14,8 km/h (3 Bft)
25.06.2011 15:00 17,9 C 56 % 1024,0 hPa 0,0 l/m SW 0,00 h 172 W/m 15,0 km/h (3 Bft)
25.06.2011 16:00 18,8 C 54 % 1023,5 hPa 0,0 l/m W 0,25 h 346 W/m 18,2 km/h (3 Bft)
25.06.2011 17:00 18,4 C 54 % 1023,3 hPa 0,0 l/m W 0,00 h 135 W/m 12,5 km/h (3 Bft)
25.06.2011 18:00 18,1 C 54 % 1023,3 hPa 0,0 l/m W 0,00 h 68 W/m 11,1 km/h (2 Bft)
25.06.2011 19:00 17,9 C 55 % 1023,7 hPa 0,0 l/m W 0,00 h 41 W/m 5,9 km/h (2 Bft)
25.06.2011 20:00 17,4 C 61 % 1023,8 hPa 0,0 l/m W-SW 0,00 h 14 W/m 3,3 km/h (1 Bft)
25.06.2011 21:00 17,0 C 64 % 1024,1 hPa 0,0 l/m W 0,00 h 6 W/m 7,9 km/h (2 Bft)
25.06.2011 22:00 16,8 C 67 % 1024,5 hPa 0,0 l/m W-SW 0,00 h 0 W/m 4,8 km/h (1 Bft)
25.06.2011 23:00 16,2 C 72 % 1024,6 hPa 0,0 l/m W-SW 0,00 h 0 W/m 1,6 km/h (1 Bft)
26.06.2011 00:00 16,0 C 74 % 1024,4 hPa 0,0 l/m W-SW 0,00 h 0 W/m 4,0 km/h (1 Bft)
26.06.2011 01:00 15,5 C 77 % 1024,2 hPa 0,0 l/m N 0,00 h 0 W/m 1,9 km/h (1 Bft)
26.06.2011 02:00 15,3 C 81 % 1023,8 hPa 0,0 l/m N 0,00 h 0 W/m 1,6 km/h (1 Bft)
26.06.2011 03:00 15,2 C 82 % 1023,4 hPa 0,0 l/m N 0,00 h 0 W/m 2,7 km/h (1 Bft)
26.06.2011 04:00 15,1 C 82 % 1023,2 hPa 0,0 l/m SW 0,00 h 0 W/m 0,9 km/h (0 Bft)
26.06.2011 05:00 15,0 C 84 % 1023,2 hPa 0,0 l/m SW 0,00 h 7 W/m 1,7 km/h (1 Bft)
26.06.2011 06:00 15,2 C 84 % 1023,3 hPa 0,0 l/m N 0,00 h 31 W/m 1,9 km/h (1 Bft)
26.06.2011 07:00 16,1 C 83 % 1023,5 hPa 0,0 l/m SW 0,17 h 116 W/m 4,9 km/h (1 Bft)
26.06.2011 08:00 18,0 C 74 % 1023,5 hPa 0,0 l/m SW 0,83 h 384 W/m 7,8 km/h (2 Bft)
26.06.2011 09:00 19,8 C 69 % 1023,2 hPa 0,0 l/m N 1,00 h 577 W/m 6,8 km/h (2 Bft)
26.06.2011 10:00 21,1 C 66 % 1022,8 hPa 0,0 l/m NW 1,00 h 752 W/m 7,4 km/h (2 Bft)
26.06.2011 11:00 22,7 C 61 % 1022,3 hPa 0,0 l/m N 1,00 h 856 W/m 8,2 km/h (2 Bft)
26.06.2011 12:00 23,3 C 58 % 1021,9 hPa 0,0 l/m O-NO 0,67 h 704 W/m 8,3 km/h (2 Bft)
26.06.2011 13:00 24,7 C 57 % 1021,5 hPa 0,0 l/m S-SW 0,67 h 730 W/m 9,8 km/h (2 Bft)
26.06.2011 14:00 25,9 C 53 % 1021,0 hPa 0,0 l/m W-NW 1,00 h 930 W/m 9,4 km/h (2 Bft)
26.06.2011 15:00 26,6 C 49 % 1020,5 hPa 0,0 l/m W-NW 1,00 h 858 W/m 8,0 km/h (2 Bft)
26.06.2011 16:00 27,1 C 45 % 1020,1 hPa 0,0 l/m W 0,58 h 497 W/m 6,8 km/h (2 Bft)
26.06.2011 17:00 27,1 C 45 % 1019,7 hPa 0,0 l/m O-SO 0,42 h 336 W/m 7,5 km/h (2 Bft)
26.06.2011 18:00 27,4 C 44 % 1019,4 hPa 0,0 l/m O-SO 0,92 h 397 W/m 5,1 km/h (1 Bft)
26.06.2011 19:00 27,1 C 46 % 1019,3 hPa 0,0 l/m O-NO 1,00 h 238 W/m 9,0 km/h (2 Bft)
26.06.2011 20:00 24,9 C 53 % 1019,3 hPa 0,0 l/m O-NO 0,08 h 52 W/m 14,0 km/h (3 Bft)
26.06.2011 21:00 22,1 C 63 % 1019,6 hPa 0,0 l/m NO 0,00 h 7 W/m 5,5 km/h (1 Bft)
26.06.2011 22:00 20,0 C 73 % 1019,9 hPa 0,0 l/m NO 0,00 h 0 W/m 4,7 km/h (1 Bft)
26.06.2011 23:00 19,0 C 79 % 1019,8 hPa 0,0 l/m NO 0,00 h 0 W/m 3,3 km/h (1 Bft)
Min-Datum _ 25.06.11 26.06.11 22.06.11 - - - - 20.06.11
_ Min-Zeit 04:30 16:50 16:40 - - - - 21:30
Minimum _ 9,3 C 42 % 1009,0 hPa - - - - 0,0 km/h (0 Bft)
Max-Datum _ 26.06.11 23.06.11 25.06.11 22.06.11 - 20.06.11 21.06.11 22.06.11
_ Max-Zeit 16:55 05:30 08:25 18:00 - 10:35 13:20 17:35
Maximum _ 28,2 C 99 % 1025,3 hPa 2,6 l/m - 0,08 h 1222 W/m 56,3 km/h
W-NW (7 Bft)
Durchschnitt _ 16,9 C 75 % 1018,2 hPa #11,0 l/m W-SW #35:05 h 260 W/m 9,6 km/h (2 Bft)